Main page
METAR-TAF:

METAR-TAF

Airports :

International Airport Irkutsk

Irkutsk, Russia

latitude: 52-16N, longitude: 104-19E, elevation: 513 m

Current weather observation

The report was made 19 minutes ago, at 19:00 UTC
Wind 4 kt from the East
Temperature 10°C
Humidity 87%
Pressure 1012 hPa
Visibility 10 km or more
no clouds below 1500 m and no cumulonimbus

METAR: UIII 181900Z 10002MPS CAVOK 10/08 Q1012 R12/CLRD60 NOSIG RMK QFE716/0955

Time: 03:19 (19:19 UTC)

Forecast

The report was made 2 hours and 19 minutes ago, at 17:00 UTC
Forecast valid from 18 at 18 UTC to 19 at 18 UTC
Wind 6 kt from the East/Northeast
Visibility 10 km or more
no clouds below 1500 m and no cumulonimbus
Temporary
from 19 at 00 UTC to 19 at 12 UTC
Wind 16 kt from the South/Southeast

TAF: UIII 181700Z 1818/1918 06003MPS CAVOK TEMPO 1900/1912 16008MPS

Weather observations and forecasts of more than 4000 airports (METAR and TAF reports).

The available stations are represented by yellow and red dots on the map.

Hover mouse over dot to see the name of the station.

Then click to see weather observations and forecasts.

To change the map : click on the green buttons with a black cross to zoom in, on the green button with a dash to zoom out, or on the green arrows for adjacent maps.


METAR-TAF: